sensor_id;sensor_type;location;lat;lon;timestamp;temperature;humidity
1800;DHT22;919;48.274;12.292;2023-02-28T00:01:07;-2.10;99.90
1800;DHT22;919;48.274;12.292;2023-02-28T00:03:33;-2.10;99.90
1800;DHT22;919;48.274;12.292;2023-02-28T00:06:01;-2.10;99.90
1800;DHT22;919;48.274;12.292;2023-02-28T00:08:28;-2.10;99.90
1800;DHT22;919;48.274;12.292;2023-02-28T00:10:54;-2.10;99.90
1800;DHT22;919;48.274;12.292;2023-02-28T00:13:21;-2.10;99.90
1800;DHT22;919;48.274;12.292;2023-02-28T00:15:58;-2.10;99.90
1800;DHT22;919;48.274;12.292;2023-02-28T00:18:26;-2.10;99.90
1800;DHT22;919;48.274;12.292;2023-02-28T00:20:53;-2.10;99.90
1800;DHT22;919;48.274;12.292;2023-02-28T00:23:20;-2.10;99.90
1800;DHT22;919;48.274;12.292;2023-02-28T00:25:46;-2.20;99.90
1800;DHT22;919;48.274;12.292;2023-02-28T00:28:13;-2.20;99.90
1800;DHT22;919;48.274;12.292;2023-02-28T00:30:40;-2.20;99.90
1800;DHT22;919;48.274;12.292;2023-02-28T00:33:06;-2.20;99.90
1800;DHT22;919;48.274;12.292;2023-02-28T00:35:35;-2.20;99.90
1800;DHT22;919;48.274;12.292;2023-02-28T00:38:01;-2.20;99.90
1800;DHT22;919;48.274;12.292;2023-02-28T00:40:28;-2.20;99.90
1800;DHT22;919;48.274;12.292;2023-02-28T00:42:55;-2.30;99.90
1800;DHT22;919;48.274;12.292;2023-02-28T00:45:22;-2.20;99.90
1800;DHT22;919;48.274;12.292;2023-02-28T00:47:48;-2.30;99.90
1800;DHT22;919;48.274;12.292;2023-02-28T00:50:16;-2.30;99.90
1800;DHT22;919;48.274;12.292;2023-02-28T00:52:44;-2.30;99.90
1800;DHT22;919;48.274;12.292;2023-02-28T00:55:11;-2.20;99.90
1800;DHT22;919;48.274;12.292;2023-02-28T00:57:37;-2.20;99.90
1800;DHT22;919;48.274;12.292;2023-02-28T01:00:06;-2.10;99.90
1800;DHT22;919;48.274;12.292;2023-02-28T01:02:33;-2.20;99.90
1800;DHT22;919;48.274;12.292;2023-02-28T01:05:00;-2.10;99.90
1800;DHT22;919;48.274;12.292;2023-02-28T01:07:26;-2.10;99.90
1800;DHT22;919;48.274;12.292;2023-02-28T01:09:55;-2.10;99.90
1800;DHT22;919;48.274;12.292;2023-02-28T01:12:22;-2.10;99.90
1800;DHT22;919;48.274;12.292;2023-02-28T01:14:48;-2.20;99.90
1800;DHT22;919;48.274;12.292;2023-02-28T01:17:15;-2.20;99.90
1800;DHT22;919;48.274;12.292;2023-02-28T01:19:42;-2.20;99.90
1800;DHT22;919;48.274;12.292;2023-02-28T01:22:08;-2.20;99.90
1800;DHT22;919;48.274;12.292;2023-02-28T01:24:35;-2.20;99.90
1800;DHT22;919;48.274;12.292;2023-02-28T01:27:03;-2.20;99.90
1800;DHT22;919;48.274;12.292;2023-02-28T01:29:30;-2.10;99.90
1800;DHT22;919;48.274;12.292;2023-02-28T01:31:56;-2.10;99.90
1800;DHT22;919;48.274;12.292;2023-02-28T01:34:24;-2.10;99.90
1800;DHT22;919;48.274;12.292;2023-02-28T01:36:51;-2.10;99.90
1800;DHT22;919;48.274;12.292;2023-02-28T01:39:18;-2.10;99.90
1800;DHT22;919;48.274;12.292;2023-02-28T01:41:45;-2.10;99.90
1800;DHT22;919;48.274;12.292;2023-02-28T01:47:16;-2.10;99.90
1800;DHT22;919;48.274;12.292;2023-02-28T01:49:43;-2.10;99.90
1800;DHT22;919;48.274;12.292;2023-02-28T01:52:11;-2.10;99.90
1800;DHT22;919;48.274;12.292;2023-02-28T01:54:40;-2.10;99.90
1800;DHT22;919;48.274;12.292;2023-02-28T01:57:10;-2.10;99.90
1800;DHT22;919;48.274;12.292;2023-02-28T01:59:40;-2.10;99.90
1800;DHT22;919;48.274;12.292;2023-02-28T02:02:11;-2.20;99.90
1800;DHT22;919;48.274;12.292;2023-02-28T02:04:45;-2.10;99.90
1800;DHT22;919;48.274;12.292;2023-02-28T02:07:14;-2.10;99.90
1800;DHT22;919;48.274;12.292;2023-02-28T02:09:40;-2.10;99.90
1800;DHT22;919;48.274;12.292;2023-02-28T02:12:13;-2.10;99.90
1800;DHT22;919;48.274;12.292;2023-02-28T02:14:54;-2.10;99.90
1800;DHT22;919;48.274;12.292;2023-02-28T02:17:29;-2.10;99.90
1800;DHT22;919;48.274;12.292;2023-02-28T02:20:31;-2.10;99.90
1800;DHT22;919;48.274;12.292;2023-02-28T02:23:40;-2.10;99.90
1800;DHT22;919;48.274;12.292;2023-02-28T02:26:47;-2.10;99.90
1800;DHT22;919;48.274;12.292;2023-02-28T02:29:40;-2.10;99.90
1800;DHT22;919;48.274;12.292;2023-02-28T02:32:28;-2.10;99.90
1800;DHT22;919;48.274;12.292;2023-02-28T02:35:10;-2.10;99.90
1800;DHT22;919;48.274;12.292;2023-02-28T02:37:43;-2.10;99.90
1800;DHT22;919;48.274;12.292;2023-02-28T02:40:14;-2.10;99.90
1800;DHT22;919;48.274;12.292;2023-02-28T02:42:47;-2.10;99.90
1800;DHT22;919;48.274;12.292;2023-02-28T02:45:21;-2.10;99.90
1800;DHT22;919;48.274;12.292;2023-02-28T02:47:49;-2.10;99.90
1800;DHT22;919;48.274;12.292;2023-02-28T02:50:22;-2.10;99.90
1800;DHT22;919;48.274;12.292;2023-02-28T02:52:53;-2.10;99.90
1800;DHT22;919;48.274;12.292;2023-02-28T02:55:22;-2.10;99.90
1800;DHT22;919;48.274;12.292;2023-02-28T02:57:52;-2.10;99.90
1800;DHT22;919;48.274;12.292;2023-02-28T03:00:23;-2.10;99.90
1800;DHT22;919;48.274;12.292;2023-02-28T03:02:52;-2.10;99.90
1800;DHT22;919;48.274;12.292;2023-02-28T03:05:25;-2.20;99.90
1800;DHT22;919;48.274;12.292;2023-02-28T03:07:52;-2.20;99.90
1800;DHT22;919;48.274;12.292;2023-02-28T03:10:28;-2.10;99.90
1800;DHT22;919;48.274;12.292;2023-02-28T03:13:03;-2.20;99.90
1800;DHT22;919;48.274;12.292;2023-02-28T03:15:40;-2.20;99.90
1800;DHT22;919;48.274;12.292;2023-02-28T03:18:21;-2.20;99.90
1800;DHT22;919;48.274;12.292;2023-02-28T03:23:38;-2.20;99.90
1800;DHT22;919;48.274;12.292;2023-02-28T03:26:13;-2.20;99.90
1800;DHT22;919;48.274;12.292;2023-02-28T03:28:51;-2.10;99.90
1800;DHT22;919;48.274;12.292;2023-02-28T03:31:23;-2.20;99.90
1800;DHT22;919;48.274;12.292;2023-02-28T03:33:59;-2.20;99.90
1800;DHT22;919;48.274;12.292;2023-02-28T03:36:29;-2.20;99.90
1800;DHT22;919;48.274;12.292;2023-02-28T03:39:00;-2.20;99.90
1800;DHT22;919;48.274;12.292;2023-02-28T03:41:32;-2.20;99.90
1800;DHT22;919;48.274;12.292;2023-02-28T03:44:05;-2.20;99.90
1800;DHT22;919;48.274;12.292;2023-02-28T03:46:37;-2.20;99.90
1800;DHT22;919;48.274;12.292;2023-02-28T03:49:11;-2.30;99.90
1800;DHT22;919;48.274;12.292;2023-02-28T03:51:41;-2.30;99.90
1800;DHT22;919;48.274;12.292;2023-02-28T03:54:13;-2.20;99.90
1800;DHT22;919;48.274;12.292;2023-02-28T03:56:45;-2.30;99.90
1800;DHT22;919;48.274;12.292;2023-02-28T03:59:16;-2.30;99.90
1800;DHT22;919;48.274;12.292;2023-02-28T04:01:46;-2.30;99.90
1800;DHT22;919;48.274;12.292;2023-02-28T04:04:15;-2.30;99.90
1800;DHT22;919;48.274;12.292;2023-02-28T04:06:42;-2.30;99.90
1800;DHT22;919;48.274;12.292;2023-02-28T04:09:13;-2.30;99.90
1800;DHT22;919;48.274;12.292;2023-02-28T04:11:41;-2.40;99.90
1800;DHT22;919;48.274;12.292;2023-02-28T04:14:10;-2.40;99.90
1800;DHT22;919;48.274;12.292;2023-02-28T04:16:39;-2.40;99.90
1800;DHT22;919;48.274;12.292;2023-02-28T04:19:07;-2.30;99.90
1800;DHT22;919;48.274;12.292;2023-02-28T04:21:35;-2.40;99.90
1800;DHT22;919;48.274;12.292;2023-02-28T04:24:03;-2.40;99.90
1800;DHT22;919;48.274;12.292;2023-02-28T04:26:32;-2.40;99.90
1800;DHT22;919;48.274;12.292;2023-02-28T04:29:01;-2.50;99.90
1800;DHT22;919;48.274;12.292;2023-02-28T04:31:28;-2.50;99.90
1800;DHT22;919;48.274;12.292;2023-02-28T04:33:55;-2.50;99.90
1800;DHT22;919;48.274;12.292;2023-02-28T04:36:22;-2.60;99.90
1800;DHT22;919;48.274;12.292;2023-02-28T04:38:49;-2.50;99.90
1800;DHT22;919;48.274;12.292;2023-02-28T04:41:16;-2.50;99.90
1800;DHT22;919;48.274;12.292;2023-02-28T04:43:44;-2.50;99.90
1800;DHT22;919;48.274;12.292;2023-02-28T04:46:11;-2.50;99.90
1800;DHT22;919;48.274;12.292;2023-02-28T04:48:39;-2.50;99.90
1800;DHT22;919;48.274;12.292;2023-02-28T04:51:09;-2.50;99.90
1800;DHT22;919;48.274;12.292;2023-02-28T04:53:36;-2.40;99.90
1800;DHT22;919;48.274;12.292;2023-02-28T04:56:04;-2.50;99.90
1800;DHT22;919;48.274;12.292;2023-02-28T04:58:31;-2.50;99.90
1800;DHT22;919;48.274;12.292;2023-02-28T05:01:04;-2.50;99.90
1800;DHT22;919;48.274;12.292;2023-02-28T05:03:38;-2.50;99.90
1800;DHT22;919;48.274;12.292;2023-02-28T05:06:06;-2.50;99.90
1800;DHT22;919;48.274;12.292;2023-02-28T05:08:32;-2.50;99.90
1800;DHT22;919;48.274;12.292;2023-02-28T05:10:59;-2.50;99.90
1800;DHT22;919;48.274;12.292;2023-02-28T05:13:27;-2.50;99.90
1800;DHT22;919;48.274;12.292;2023-02-28T05:15:54;-2.60;99.90
1800;DHT22;919;48.274;12.292;2023-02-28T05:18:22;-2.50;99.90
1800;DHT22;919;48.274;12.292;2023-02-28T05:20:48;-2.50;99.90
1800;DHT22;919;48.274;12.292;2023-02-28T05:23:16;-2.50;99.90
1800;DHT22;919;48.274;12.292;2023-02-28T05:25:44;-2.50;99.90
1800;DHT22;919;48.274;12.292;2023-02-28T05:28:10;-2.60;99.90
1800;DHT22;919;48.274;12.292;2023-02-28T05:30:37;-2.60;99.90
1800;DHT22;919;48.274;12.292;2023-02-28T05:33:03;-2.60;99.90
1800;DHT22;919;48.274;12.292;2023-02-28T05:35:32;-2.60;99.90
1800;DHT22;919;48.274;12.292;2023-02-28T05:37:58;-2.60;99.90
1800;DHT22;919;48.274;12.292;2023-02-28T05:40:25;-2.60;99.90
1800;DHT22;919;48.274;12.292;2023-02-28T05:42:52;-2.60;99.90
1800;DHT22;919;48.274;12.292;2023-02-28T05:45:18;-2.60;99.90
1800;DHT22;919;48.274;12.292;2023-02-28T05:47:45;-2.60;99.90
1800;DHT22;919;48.274;12.292;2023-02-28T05:50:12;-2.60;99.90
1800;DHT22;919;48.274;12.292;2023-02-28T05:52:40;-2.70;99.90
1800;DHT22;919;48.274;12.292;2023-02-28T05:55:07;-2.70;99.90
1800;DHT22;919;48.274;12.292;2023-02-28T05:57:34;-2.80;99.90
1800;DHT22;919;48.274;12.292;2023-02-28T06:00:01;-2.80;99.90
1800;DHT22;919;48.274;12.292;2023-02-28T06:02:28;-2.80;99.90
1800;DHT22;919;48.274;12.292;2023-02-28T06:04:55;-2.80;99.90
1800;DHT22;919;48.274;12.292;2023-02-28T06:07:21;-2.80;99.90
1800;DHT22;919;48.274;12.292;2023-02-28T06:09:50;-2.90;99.90
1800;DHT22;919;48.274;12.292;2023-02-28T06:12:16;-2.90;99.90
1800;DHT22;919;48.274;12.292;2023-02-28T06:14:43;-2.90;99.90
1800;DHT22;919;48.274;12.292;2023-02-28T06:17:10;-2.80;99.90
1800;DHT22;919;48.274;12.292;2023-02-28T06:19:37;-2.80;99.90
1800;DHT22;919;48.274;12.292;2023-02-28T06:22:05;-2.80;99.90
1800;DHT22;919;48.274;12.292;2023-02-28T06:24:31;-2.80;99.90
1800;DHT22;919;48.274;12.292;2023-02-28T06:26:59;-2.80;99.90
1800;DHT22;919;48.274;12.292;2023-02-28T06:29:30;-2.70;99.90
1800;DHT22;919;48.274;12.292;2023-02-28T06:31:57;-2.70;99.90
1800;DHT22;919;48.274;12.292;2023-02-28T06:34:24;-2.60;99.90
1800;DHT22;919;48.274;12.292;2023-02-28T06:36:51;-2.50;99.90
1800;DHT22;919;48.274;12.292;2023-02-28T06:39:18;-2.50;99.90
1800;DHT22;919;48.274;12.292;2023-02-28T06:41:45;-2.50;99.90
1800;DHT22;919;48.274;12.292;2023-02-28T06:44:16;-2.40;99.90
1800;DHT22;919;48.274;12.292;2023-02-28T06:46:44;-2.40;99.90
1800;DHT22;919;48.274;12.292;2023-02-28T06:49:12;-2.40;99.90
1800;DHT22;919;48.274;12.292;2023-02-28T06:51:42;-2.40;99.90
1800;DHT22;919;48.274;12.292;2023-02-28T06:54:11;-2.30;99.90
1800;DHT22;919;48.274;12.292;2023-02-28T06:56:37;-2.30;99.90
1800;DHT22;919;48.274;12.292;2023-02-28T06:59:04;-2.30;99.90
1800;DHT22;919;48.274;12.292;2023-02-28T07:01:32;-2.30;99.90
1800;DHT22;919;48.274;12.292;2023-02-28T07:04:00;-2.20;99.90
1800;DHT22;919;48.274;12.292;2023-02-28T07:06:27;-2.20;99.90
1800;DHT22;919;48.274;12.292;2023-02-28T07:08:54;-2.20;99.90
1800;DHT22;919;48.274;12.292;2023-02-28T07:11:21;-2.20;99.90
1800;DHT22;919;48.274;12.292;2023-02-28T07:13:50;-2.20;99.90
1800;DHT22;919;48.274;12.292;2023-02-28T07:16:17;-2.20;99.90
1800;DHT22;919;48.274;12.292;2023-02-28T07:18:45;-2.10;99.90
1800;DHT22;919;48.274;12.292;2023-02-28T07:21:12;-2.10;99.90
1800;DHT22;919;48.274;12.292;2023-02-28T07:23:39;-2.10;99.90
1800;DHT22;919;48.274;12.292;2023-02-28T07:26:08;-2.00;99.90
1800;DHT22;919;48.274;12.292;2023-02-28T07:28:38;-1.90;99.90
1800;DHT22;919;48.274;12.292;2023-02-28T07:31:05;-1.90;99.90
1800;DHT22;919;48.274;12.292;2023-02-28T07:33:32;-1.80;99.90
1800;DHT22;919;48.274;12.292;2023-02-28T07:36:02;-1.80;99.90
1800;DHT22;919;48.274;12.292;2023-02-28T07:38:29;-1.70;99.90
1800;DHT22;919;48.274;12.292;2023-02-28T07:40:56;-1.70;99.90
1800;DHT22;919;48.274;12.292;2023-02-28T07:43:23;-1.70;99.90
1800;DHT22;919;48.274;12.292;2023-02-28T07:45:49;-1.70;99.90
1800;DHT22;919;48.274;12.292;2023-02-28T07:48:16;-1.60;99.90
1800;DHT22;919;48.274;12.292;2023-02-28T07:50:43;-1.50;99.90
1800;DHT22;919;48.274;12.292;2023-02-28T07:53:11;-1.50;99.90
1800;DHT22;919;48.274;12.292;2023-02-28T07:55:37;-1.30;99.90
1800;DHT22;919;48.274;12.292;2023-02-28T07:58:04;-1.30;99.90
1800;DHT22;919;48.274;12.292;2023-02-28T08:00:31;-1.20;99.90
1800;DHT22;919;48.274;12.292;2023-02-28T08:02:58;-1.10;99.90
1800;DHT22;919;48.274;12.292;2023-02-28T08:05:25;-1.10;99.90
1800;DHT22;919;48.274;12.292;2023-02-28T08:07:51;-1.10;99.90
1800;DHT22;919;48.274;12.292;2023-02-28T08:10:20;-1.10;99.90
1800;DHT22;919;48.274;12.292;2023-02-28T08:12:46;-1.10;99.90
1800;DHT22;919;48.274;12.292;2023-02-28T08:15:13;-0.90;99.90
1800;DHT22;919;48.274;12.292;2023-02-28T08:17:40;-0.80;99.90
1800;DHT22;919;48.274;12.292;2023-02-28T08:20:10;-0.70;99.90
1800;DHT22;919;48.274;12.292;2023-02-28T08:22:36;-0.70;99.90
1800;DHT22;919;48.274;12.292;2023-02-28T08:25:04;-0.70;99.90
1800;DHT22;919;48.274;12.292;2023-02-28T08:27:33;-0.60;99.90
1800;DHT22;919;48.274;12.292;2023-02-28T08:30:00;-0.40;99.90
1800;DHT22;919;48.274;12.292;2023-02-28T08:32:27;-0.50;99.90
1800;DHT22;919;48.274;12.292;2023-02-28T08:34:53;-0.60;99.90
1800;DHT22;919;48.274;12.292;2023-02-28T08:37:20;-0.50;99.90
1800;DHT22;919;48.274;12.292;2023-02-28T08:39:47;-0.30;99.90
1800;DHT22;919;48.274;12.292;2023-02-28T08:42:14;-0.20;99.90
1800;DHT22;919;48.274;12.292;2023-02-28T08:44:42;-0.20;99.90
1800;DHT22;919;48.274;12.292;2023-02-28T08:47:09;-0.10;99.90
1800;DHT22;919;48.274;12.292;2023-02-28T08:49:36;0.00;99.90
1800;DHT22;919;48.274;12.292;2023-02-28T08:52:03;-0.20;99.90
1800;DHT22;919;48.274;12.292;2023-02-28T08:54:30;-0.20;99.90
1800;DHT22;919;48.274;12.292;2023-02-28T08:56:58;-0.30;99.90
1800;DHT22;919;48.274;12.292;2023-02-28T08:59:25;-0.30;99.90
1800;DHT22;919;48.274;12.292;2023-02-28T09:01:53;-0.30;99.90
1800;DHT22;919;48.274;12.292;2023-02-28T09:04:20;-0.30;99.90
1800;DHT22;919;48.274;12.292;2023-02-28T09:06:47;-0.20;99.90
1800;DHT22;919;48.274;12.292;2023-02-28T09:09:14;-0.10;99.90
1800;DHT22;919;48.274;12.292;2023-02-28T09:11:41;0.00;99.90
1800;DHT22;919;48.274;12.292;2023-02-28T09:14:08;0.00;99.90
1800;DHT22;919;48.274;12.292;2023-02-28T09:16:35;0.10;99.90
1800;DHT22;919;48.274;12.292;2023-02-28T09:19:03;0.30;99.90
1800;DHT22;919;48.274;12.292;2023-02-28T09:21:29;0.30;99.90
1800;DHT22;919;48.274;12.292;2023-02-28T09:23:56;0.30;99.90
1800;DHT22;919;48.274;12.292;2023-02-28T09:26:25;0.40;99.90
1800;DHT22;919;48.274;12.292;2023-02-28T09:28:52;0.50;99.90
1800;DHT22;919;48.274;12.292;2023-02-28T09:31:22;0.40;99.90
1800;DHT22;919;48.274;12.292;2023-02-28T09:33:50;0.50;99.90
1800;DHT22;919;48.274;12.292;2023-02-28T09:36:18;0.70;99.90
1800;DHT22;919;48.274;12.292;2023-02-28T09:38:45;0.90;99.90
1800;DHT22;919;48.274;12.292;2023-02-28T09:41:14;0.90;99.90
1800;DHT22;919;48.274;12.292;2023-02-28T09:43:45;0.90;99.90
1800;DHT22;919;48.274;12.292;2023-02-28T09:46:28;1.10;99.90
1800;DHT22;919;48.274;12.292;2023-02-28T09:49:00;1.20;99.90
1800;DHT22;919;48.274;12.292;2023-02-28T09:51:35;1.10;99.90
1800;DHT22;919;48.274;12.292;2023-02-28T09:54:13;1.10;99.90
1800;DHT22;919;48.274;12.292;2023-02-28T09:56:45;1.20;99.90
1800;DHT22;919;48.274;12.292;2023-02-28T09:59:30;1.30;99.90
1800;DHT22;919;48.274;12.292;2023-02-28T10:02:08;1.40;99.90
1800;DHT22;919;48.274;12.292;2023-02-28T10:04:43;1.50;99.90
1800;DHT22;919;48.274;12.292;2023-02-28T10:07:25;1.50;99.90
1800;DHT22;919;48.274;12.292;2023-02-28T10:09:57;1.50;99.90
1800;DHT22;919;48.274;12.292;2023-02-28T10:12:27;1.60;99.90
1800;DHT22;919;48.274;12.292;2023-02-28T10:14:58;1.70;99.90
1800;DHT22;919;48.274;12.292;2023-02-28T10:17:32;1.70;99.90
1800;DHT22;919;48.274;12.292;2023-02-28T10:20:06;2.10;99.90
1800;DHT22;919;48.274;12.292;2023-02-28T10:22:48;2.30;99.90
1800;DHT22;919;48.274;12.292;2023-02-28T10:25:19;2.10;99.90
1800;DHT22;919;48.274;12.292;2023-02-28T10:27:50;2.30;99.90
1800;DHT22;919;48.274;12.292;2023-02-28T10:30:25;2.40;99.90
1800;DHT22;919;48.274;12.292;2023-02-28T10:32:52;2.30;99.90
1800;DHT22;919;48.274;12.292;2023-02-28T10:35:21;2.30;99.90
1800;DHT22;919;48.274;12.292;2023-02-28T10:37:53;2.20;99.90
1800;DHT22;919;48.274;12.292;2023-02-28T10:40:31;2.10;99.90
1800;DHT22;919;48.274;12.292;2023-02-28T10:43:00;2.40;99.90
1800;DHT22;919;48.274;12.292;2023-02-28T10:45:28;2.70;99.90
1800;DHT22;919;48.274;12.292;2023-02-28T10:48:00;2.90;99.90
1800;DHT22;919;48.274;12.292;2023-02-28T10:50:34;3.10;99.90
1800;DHT22;919;48.274;12.292;2023-02-28T10:53:28;2.80;99.90
1800;DHT22;919;48.274;12.292;2023-02-28T10:55:59;2.70;99.90
1800;DHT22;919;48.274;12.292;2023-02-28T10:58:28;2.60;99.90
1800;DHT22;919;48.274;12.292;2023-02-28T11:00:56;2.80;99.90
1800;DHT22;919;48.274;12.292;2023-02-28T11:03:29;2.90;99.90
1800;DHT22;919;48.274;12.292;2023-02-28T11:05:56;3.10;99.90
1800;DHT22;919;48.274;12.292;2023-02-28T11:08:24;3.20;99.90
1800;DHT22;919;48.274;12.292;2023-02-28T11:10:55;3.30;99.90
1800;DHT22;919;48.274;12.292;2023-02-28T11:13:26;3.40;99.90
1800;DHT22;919;48.274;12.292;2023-02-28T11:15:57;3.40;99.90
1800;DHT22;919;48.274;12.292;2023-02-28T11:18:28;3.60;99.90
1800;DHT22;919;48.274;12.292;2023-02-28T11:20:58;3.60;99.90
1800;DHT22;919;48.274;12.292;2023-02-28T11:23:28;3.50;99.90
1800;DHT22;919;48.274;12.292;2023-02-28T11:25:58;3.50;99.90
1800;DHT22;919;48.274;12.292;2023-02-28T11:28:28;3.40;99.90
1800;DHT22;919;48.274;12.292;2023-02-28T11:31:02;3.30;99.90
1800;DHT22;919;48.274;12.292;2023-02-28T11:33:31;3.50;99.90
1800;DHT22;919;48.274;12.292;2023-02-28T11:36:02;3.70;99.90
1800;DHT22;919;48.274;12.292;2023-02-28T11:38:34;3.80;99.90
1800;DHT22;919;48.274;12.292;2023-02-28T11:41:24;3.90;99.90
1800;DHT22;919;48.274;12.292;2023-02-28T11:44:04;3.70;99.90
1800;DHT22;919;48.274;12.292;2023-02-28T11:46:36;3.60;99.90
1800;DHT22;919;48.274;12.292;2023-02-28T11:49:18;3.60;99.90
1800;DHT22;919;48.274;12.292;2023-02-28T11:51:54;3.50;99.90
1800;DHT22;919;48.274;12.292;2023-02-28T11:54:35;3.60;99.90
1800;DHT22;919;48.274;12.292;2023-02-28T11:57:16;4.10;99.90
1800;DHT22;919;48.274;12.292;2023-02-28T11:59:56;4.00;99.90
1800;DHT22;919;48.274;12.292;2023-02-28T12:02:30;3.70;99.90
1800;DHT22;919;48.274;12.292;2023-02-28T12:05:18;3.70;99.90
1800;DHT22;919;48.274;12.292;2023-02-28T12:07:59;3.80;99.90
1800;DHT22;919;48.274;12.292;2023-02-28T12:10:32;4.10;99.90
1800;DHT22;919;48.274;12.292;2023-02-28T12:13:10;4.20;99.90
1800;DHT22;919;48.274;12.292;2023-02-28T12:18:48;4.50;99.90
1800;DHT22;919;48.274;12.292;2023-02-28T12:21:25;4.50;99.90
1800;DHT22;919;48.274;12.292;2023-02-28T12:24:24;4.80;99.90
1800;DHT22;919;48.274;12.292;2023-02-28T12:26:57;4.80;99.90
1800;DHT22;919;48.274;12.292;2023-02-28T12:29:29;4.60;99.90
1800;DHT22;919;48.274;12.292;2023-02-28T12:32:01;4.50;99.90
1800;DHT22;919;48.274;12.292;2023-02-28T12:34:34;4.10;99.90
1800;DHT22;919;48.274;12.292;2023-02-28T12:37:06;4.00;99.90
1800;DHT22;919;48.274;12.292;2023-02-28T12:39:36;4.00;99.90
1800;DHT22;919;48.274;12.292;2023-02-28T12:42:10;4.00;99.90
1800;DHT22;919;48.274;12.292;2023-02-28T12:44:44;4.10;99.90
1800;DHT22;919;48.274;12.292;2023-02-28T12:47:15;4.10;99.90
1800;DHT22;919;48.274;12.292;2023-02-28T12:49:46;4.20;99.90
1800;DHT22;919;48.274;12.292;2023-02-28T12:52:21;4.10;99.90
1800;DHT22;919;48.274;12.292;2023-02-28T12:54:52;3.90;99.90
1800;DHT22;919;48.274;12.292;2023-02-28T12:57:28;4.00;99.90
1800;DHT22;919;48.274;12.292;2023-02-28T13:00:01;4.00;99.90
1800;DHT22;919;48.274;12.292;2023-02-28T13:02:55;4.30;99.90
1800;DHT22;919;48.274;12.292;2023-02-28T13:05:49;4.40;99.90
1800;DHT22;919;48.274;12.292;2023-02-28T13:08:52;4.70;99.90
1800;DHT22;919;48.274;12.292;2023-02-28T13:11:55;4.90;99.90
1800;DHT22;919;48.274;12.292;2023-02-28T13:14:26;4.80;99.90
1800;DHT22;919;48.274;12.292;2023-02-28T13:17:01;4.60;99.90
1800;DHT22;919;48.274;12.292;2023-02-28T13:19:30;4.50;99.90
1800;DHT22;919;48.274;12.292;2023-02-28T13:21:58;4.60;99.90
1800;DHT22;919;48.274;12.292;2023-02-28T13:24:47;4.80;99.90
1800;DHT22;919;48.274;12.292;2023-02-28T13:27:32;4.90;99.90
1800;DHT22;919;48.274;12.292;2023-02-28T13:30:01;4.70;99.90
1800;DHT22;919;48.274;12.292;2023-02-28T13:32:33;4.80;99.90
1800;DHT22;919;48.274;12.292;2023-02-28T13:35:35;4.80;99.90
1800;DHT22;919;48.274;12.292;2023-02-28T13:38:34;4.60;99.90
1800;DHT22;919;48.274;12.292;2023-02-28T13:44:09;4.30;99.90
1800;DHT22;919;48.274;12.292;2023-02-28T13:47:19;4.20;99.90
1800;DHT22;919;48.274;12.292;2023-02-28T13:49:47;4.30;99.90
1800;DHT22;919;48.274;12.292;2023-02-28T13:52:18;4.60;99.90
1800;DHT22;919;48.274;12.292;2023-02-28T13:55:13;4.70;99.90
1800;DHT22;919;48.274;12.292;2023-02-28T13:57:58;4.30;99.90
1800;DHT22;919;48.274;12.292;2023-02-28T14:00:39;4.30;99.90
1800;DHT22;919;48.274;12.292;2023-02-28T14:03:21;4.60;99.90
1800;DHT22;919;48.274;12.292;2023-02-28T14:06:15;4.50;99.90
1800;DHT22;919;48.274;12.292;2023-02-28T14:08:50;4.40;99.90
1800;DHT22;919;48.274;12.292;2023-02-28T14:11:33;4.60;99.90
1800;DHT22;919;48.274;12.292;2023-02-28T14:14:01;4.90;99.90
1800;DHT22;919;48.274;12.292;2023-02-28T14:16:36;5.10;99.90
1800;DHT22;919;48.274;12.292;2023-02-28T14:19:13;5.20;99.90
1800;DHT22;919;48.274;12.292;2023-02-28T14:21:50;5.10;99.90
1800;DHT22;919;48.274;12.292;2023-02-28T14:27:29;5.30;99.90
1800;DHT22;919;48.274;12.292;2023-02-28T14:30:43;5.30;99.90
1800;DHT22;919;48.274;12.292;2023-02-28T14:33:22;5.20;99.90
1800;DHT22;919;48.274;12.292;2023-02-28T14:36:05;5.10;99.90
1800;DHT22;919;48.274;12.292;2023-02-28T14:38:36;4.80;99.90
1800;DHT22;919;48.274;12.292;2023-02-28T14:41:15;4.60;99.90
1800;DHT22;919;48.274;12.292;2023-02-28T14:43:52;4.60;99.90
1800;DHT22;919;48.274;12.292;2023-02-28T14:46:24;4.70;99.90
1800;DHT22;919;48.274;12.292;2023-02-28T14:48:56;4.80;99.90
1800;DHT22;919;48.274;12.292;2023-02-28T14:51:28;4.70;99.90
1800;DHT22;919;48.274;12.292;2023-02-28T14:53:58;4.70;99.90
1800;DHT22;919;48.274;12.292;2023-02-28T14:56:29;4.70;99.90
1800;DHT22;919;48.274;12.292;2023-02-28T14:58:56;4.80;99.90
1800;DHT22;919;48.274;12.292;2023-02-28T15:01:24;4.90;99.90
1800;DHT22;919;48.274;12.292;2023-02-28T15:03:59;5.10;99.90
1800;DHT22;919;48.274;12.292;2023-02-28T15:06:28;5.20;99.90
1800;DHT22;919;48.274;12.292;2023-02-28T15:09:10;5.00;99.90
1800;DHT22;919;48.274;12.292;2023-02-28T15:11:38;5.00;99.90
1800;DHT22;919;48.274;12.292;2023-02-28T15:14:05;4.80;99.90
1800;DHT22;919;48.274;12.292;2023-02-28T15:16:35;4.70;99.90
1800;DHT22;919;48.274;12.292;2023-02-28T15:19:05;4.60;99.90
1800;DHT22;919;48.274;12.292;2023-02-28T15:21:35;4.60;99.90
1800;DHT22;919;48.274;12.292;2023-02-28T15:24:05;4.40;99.90
1800;DHT22;919;48.274;12.292;2023-02-28T15:26:37;4.20;99.90
1800;DHT22;919;48.274;12.292;2023-02-28T15:29:06;4.10;99.90
1800;DHT22;919;48.274;12.292;2023-02-28T15:31:35;4.10;99.90
1800;DHT22;919;48.274;12.292;2023-02-28T15:34:06;4.30;99.90
1800;DHT22;919;48.274;12.292;2023-02-28T15:36:43;4.30;99.90
1800;DHT22;919;48.274;12.292;2023-02-28T15:39:19;4.40;99.90
1800;DHT22;919;48.274;12.292;2023-02-28T15:41:46;4.40;99.90
1800;DHT22;919;48.274;12.292;2023-02-28T15:44:33;4.40;99.90
1800;DHT22;919;48.274;12.292;2023-02-28T15:47:02;4.40;99.90
1800;DHT22;919;48.274;12.292;2023-02-28T15:49:33;4.20;99.90
1800;DHT22;919;48.274;12.292;2023-02-28T15:52:05;4.10;99.90
1800;DHT22;919;48.274;12.292;2023-02-28T15:54:33;4.00;99.90
1800;DHT22;919;48.274;12.292;2023-02-28T15:57:04;3.90;99.90
1800;DHT22;919;48.274;12.292;2023-02-28T15:59:31;3.90;99.90
1800;DHT22;919;48.274;12.292;2023-02-28T16:04:56;3.80;99.90
1800;DHT22;919;48.274;12.292;2023-02-28T16:07:24;3.60;99.90
1800;DHT22;919;48.274;12.292;2023-02-28T16:09:51;3.60;99.90
1800;DHT22;919;48.274;12.292;2023-02-28T16:12:19;3.50;99.90
1800;DHT22;919;48.274;12.292;2023-02-28T16:14:47;3.40;99.90
1800;DHT22;919;48.274;12.292;2023-02-28T16:17:19;3.40;99.90
1800;DHT22;919;48.274;12.292;2023-02-28T16:19:47;3.30;99.90
1800;DHT22;919;48.274;12.292;2023-02-28T16:22:13;3.20;99.90
1800;DHT22;919;48.274;12.292;2023-02-28T16:24:41;3.00;99.90
1800;DHT22;919;48.274;12.292;2023-02-28T16:27:16;3.00;99.90
1800;DHT22;919;48.274;12.292;2023-02-28T16:29:43;2.90;99.90
1800;DHT22;919;48.274;12.292;2023-02-28T16:32:12;2.90;99.90
1800;DHT22;919;48.274;12.292;2023-02-28T16:34:40;2.90;99.90
1800;DHT22;919;48.274;12.292;2023-02-28T16:37:11;3.00;99.90
1800;DHT22;919;48.274;12.292;2023-02-28T16:39:38;2.90;99.90
1800;DHT22;919;48.274;12.292;2023-02-28T16:42:08;2.90;99.90
1800;DHT22;919;48.274;12.292;2023-02-28T16:44:37;2.90;99.90
1800;DHT22;919;48.274;12.292;2023-02-28T16:47:04;2.90;99.90
1800;DHT22;919;48.274;12.292;2023-02-28T16:49:31;2.80;99.90
1800;DHT22;919;48.274;12.292;2023-02-28T16:51:57;2.80;99.90
1800;DHT22;919;48.274;12.292;2023-02-28T16:54:24;2.70;99.90